Time;durP1;ratioP1;P1;durP2;ratioP2;P2;SDS_P1;SDS_P2;PMS_P1;PMS_P2;Temp;Humidity;BMP_temperature;BMP_pressure;BME280_temperature;BME280_humidity;BME280_pressure;Samples;Min_cycle;Max_cycle;Signal;HPM_P1;HPM_P2
2022/01/27 00:02:56;;;;;;;32.28;17.08;;;;;;;;;;5072427;28;20060;-66
2022/01/27 00:07:41;;;;;;;29.80;15.98;;;;;;;;;;5061468;28;20057;-66
2022/01/27 00:10:29;;;;;;;33.28;18.55;;;;;;;;;;5074961;28;20049;-66
2022/01/27 00:12:58;;;;;;;34.35;17.38;;;;;;;;;;5058826;28;20057;-65
2022/01/27 00:15:30;;;;;;;29.75;16.88;;;;;;;;;;5064104;28;20056;-66
2022/01/27 00:18:01;;;;;;;33.67;18.45;;;;;;;;;;5062729;28;20065;-66
2022/01/27 00:20:28;;;;;;;29.50;16.67;;;;;;;;;;5055036;28;20059;-66
2022/01/27 00:22:55;;;;;;;31.10;16.85;;;;;;;;;;5055713;28;20049;-66
2022/01/27 00:25:21;;;;;;;31.80;18.23;;;;;;;;;;5055636;28;20064;-66
2022/01/27 00:27:48;;;;;;;36.85;17.77;;;;;;;;;;5057306;28;20515;-65
2022/01/27 00:30:14;;;;;;;28.98;16.02;;;;;;;;;;5055642;28;20049;-64
2022/01/27 00:32:40;;;;;;;33.17;18.50;;;;;;;;;;5053666;28;20140;-65
2022/01/27 00:35:07;;;;;;;29.58;16.52;;;;;;;;;;5053925;28;20061;-65
2022/01/27 00:37:33;;;;;;;26.42;15.88;;;;;;;;;;5054019;28;20140;-64
2022/01/27 00:40:00;;;;;;;31.95;17.42;;;;;;;;;;5054818;28;20053;-65
2022/01/27 00:42:27;;;;;;;30.13;16.52;;;;;;;;;;5054894;28;20059;-65
2022/01/27 00:44:54;;;;;;;27.30;16.25;;;;;;;;;;5066135;28;20107;-65
2022/01/27 00:47:21;;;;;;;35.72;16.80;;;;;;;;;;5058196;28;20087;-65
2022/01/27 00:49:47;;;;;;;29.15;16.33;;;;;;;;;;5063334;28;20077;-65
2022/01/27 00:52:25;;;;;;;29.02;16.50;;;;;;;;;;5055223;28;20133;-66
2022/01/27 00:54:53;;;;;;;31.63;16.92;;;;;;;;;;5055534;28;20581;-65
2022/01/27 00:57:57;;;;;;;29.38;15.82;;;;;;;;;;5054924;28;20061;-65
2022/01/27 01:00:09;;;;;;;27.42;14.88;;;;;;;;;;5054885;28;20598;-66
2022/01/27 01:05:55;;;;;;;30.53;15.60;;;;;;;;;;5059453;28;20117;-66
2022/01/27 01:21:59;;;;;;;33.72;16.83;;;;;;;;;;5068921;28;20111;-65
2022/01/27 01:32:47;;;;;;;26.05;14.95;;;;;;;;;;5054429;28;20256;-64
2022/01/27 01:35:14;;;;;;;25.98;14.80;;;;;;;;;;5062773;28;20148;-66
2022/01/27 01:37:42;;;;;;;27.48;15.68;;;;;;;;;;5073792;28;20580;-63
2022/01/27 01:40:11;;;;;;;25.58;15.95;;;;;;;;;;5054669;28;20050;-65
2022/01/27 01:42:37;;;;;;;33.20;16.60;;;;;;;;;;5053821;28;20103;-65
2022/01/27 01:45:04;;;;;;;29.73;16.30;;;;;;;;;;5071212;28;20049;-65
2022/01/27 01:47:30;;;;;;;33.72;15.77;;;;;;;;;;5073081;28;20059;-66
2022/01/27 01:49:57;;;;;;;34.15;16.35;;;;;;;;;;5054378;28;20111;-66
2022/01/27 01:52:23;;;;;;;29.45;16.05;;;;;;;;;;5055668;28;20061;-65
2022/01/27 01:54:49;;;;;;;27.23;15.70;;;;;;;;;;5055024;28;20061;-64
2022/01/27 01:57:16;;;;;;;29.38;16.52;;;;;;;;;;5054102;28;20580;-64
2022/01/27 01:59:42;;;;;;;27.88;16.27;;;;;;;;;;5062333;28;20137;-65
2022/01/27 02:02:12;;;;;;;29.92;16.25;;;;;;;;;;5055176;28;20053;-65
2022/01/27 02:04:39;;;;;;;26.55;15.55;;;;;;;;;;5064044;28;20057;-65
2022/01/27 02:07:14;;;;;;;30.77;15.93;;;;;;;;;;5057160;28;20538;-65
2022/01/27 02:10:05;;;;;;;31.03;15.43;;;;;;;;;;5060678;28;20136;-65
2022/01/27 02:18:06;;;;;;;30.95;16.98;;;;;;;;;;5054088;28;20088;-66
2022/01/27 02:20:34;;;;;;;32.70;16.70;;;;;;;;;;5053185;28;20053;-65
2022/01/27 02:23:02;;;;;;;28.80;16.55;;;;;;;;;;5056977;28;20578;-64
2022/01/27 02:25:28;;;;;;;26.30;15.77;;;;;;;;;;5055885;28;20104;-66
2022/01/27 02:27:55;;;;;;;29.80;18.05;;;;;;;;;;5060303;28;20045;-65
2022/01/27 02:30:24;;;;;;;25.08;15.82;;;;;;;;;;5058596;28;20089;-63
2022/01/27 02:32:52;;;;;;;29.45;17.00;;;;;;;;;;5051682;28;20056;-65
2022/01/27 02:35:19;;;;;;;31.15;15.93;;;;;;;;;;5066796;28;20136;-66
2022/01/27 02:37:46;;;;;;;32.65;17.05;;;;;;;;;;5053492;28;20053;-68
2022/01/27 02:40:18;;;;;;;39.53;17.17;;;;;;;;;;5071867;28;20135;-65
2022/01/27 02:42:45;;;;;;;31.08;17.15;;;;;;;;;;5069576;28;20057;-64
2022/01/27 02:45:21;;;;;;;32.08;16.63;;;;;;;;;;5054055;28;20057;-65
2022/01/27 02:47:47;;;;;;;28.63;15.63;;;;;;;;;;5054783;28;20056;-64
2022/01/27 02:50:15;;;;;;;26.13;14.25;;;;;;;;;;5058763;28;20092;-64
2022/01/27 02:52:41;;;;;;;36.53;16.80;;;;;;;;;;5053527;28;20085;-64
2022/01/27 02:55:08;;;;;;;33.28;17.20;;;;;;;;;;5057495;28;20080;-65
2022/01/27 02:57:34;;;;;;;28.50;16.35;;;;;;;;;;5052863;28;20067;-66
2022/01/27 03:00:01;;;;;;;32.25;17.75;;;;;;;;;;5057247;28;20081;-66
2022/01/27 03:02:27;;;;;;;35.97;17.65;;;;;;;;;;5064951;28;20490;-65
2022/01/27 03:04:53;;;;;;;27.10;16.50;;;;;;;;;;5067216;28;20488;-64
2022/01/27 03:07:20;;;;;;;29.75;16.10;;;;;;;;;;5064377;28;20053;-65
2022/01/27 03:09:46;;;;;;;32.00;17.10;;;;;;;;;;5055506;28;20059;-65
2022/01/27 03:12:13;;;;;;;30.92;15.80;;;;;;;;;;5052880;28;20080;-64
2022/01/27 03:14:40;;;;;;;29.42;17.05;;;;;;;;;;5067114;28;20056;-64
2022/01/27 03:17:07;;;;;;;34.17;15.55;;;;;;;;;;5065833;28;20053;-65
2022/01/27 03:19:35;;;;;;;26.85;15.82;;;;;;;;;;5054184;28;20065;-65
2022/01/27 03:22:02;;;;;;;29.95;16.40;;;;;;;;;;5053402;28;20084;-65
2022/01/27 03:24:29;;;;;;;31.73;15.73;;;;;;;;;;5061231;28;20057;-65
2022/01/27 03:26:56;;;;;;;28.20;15.80;;;;;;;;;;5057150;28;20498;-65
2022/01/27 03:29:23;;;;;;;36.45;17.35;;;;;;;;;;5062844;28;20493;-65
2022/01/27 03:31:50;;;;;;;29.63;15.45;;;;;;;;;;5064657;28;20633;-64
2022/01/27 03:34:16;;;;;;;33.50;16.88;;;;;;;;;;5052099;28;20595;-65
2022/01/27 03:36:43;;;;;;;34.33;16.13;;;;;;;;;;5059631;28;20264;-66
2022/01/27 03:39:09;;;;;;;28.13;15.82;;;;;;;;;;5068963;28;20533;-65
2022/01/27 03:41:37;;;;;;;28.30;16.00;;;;;;;;;;5072119;28;20076;-66
2022/01/27 03:44:05;;;;;;;30.35;15.10;;;;;;;;;;5071540;28;20523;-65
2022/01/27 03:46:31;;;;;;;28.98;16.20;;;;;;;;;;5065296;28;20050;-66
2022/01/27 03:48:58;;;;;;;35.60;18.02;;;;;;;;;;5056464;28;20535;-65
2022/01/27 03:51:24;;;;;;;28.95;15.82;;;;;;;;;;5052550;28;20057;-64
2022/01/27 03:53:50;;;;;;;28.75;16.38;;;;;;;;;;5058709;28;20129;-64
2022/01/27 03:56:17;;;;;;;33.75;15.82;;;;;;;;;;5055507;28;20148;-64
2022/01/27 03:58:43;;;;;;;28.15;15.52;;;;;;;;;;5063077;28;20050;-66
2022/01/27 04:01:09;;;;;;;33.70;16.98;;;;;;;;;;5062672;28;20061;-66
2022/01/27 04:03:38;;;;;;;33.15;17.13;;;;;;;;;;5057686;28;20115;-65
2022/01/27 04:06:08;;;;;;;30.05;17.17;;;;;;;;;;5070054;28;20149;-65
2022/01/27 04:08:37;;;;;;;32.25;16.77;;;;;;;;;;5057222;28;20080;-64
2022/01/27 04:11:04;;;;;;;31.23;16.65;;;;;;;;;;5067331;28;20062;-65
2022/01/27 04:13:31;;;;;;;28.95;16.42;;;;;;;;;;5060137;28;20056;-65
2022/01/27 04:15:57;;;;;;;29.50;15.93;;;;;;;;;;5071705;28;20053;-64
2022/01/27 04:18:24;;;;;;;33.17;15.25;;;;;;;;;;5061254;28;20060;-64
2022/01/27 04:20:50;;;;;;;34.58;17.90;;;;;;;;;;5055118;28;20089;-64
2022/01/27 04:23:18;;;;;;;29.88;15.50;;;;;;;;;;5068237;28;20095;-66
2022/01/27 04:25:46;;;;;;;32.05;16.70;;;;;;;;;;5057578;28;20049;-65
2022/01/27 04:28:16;;;;;;;29.70;15.95;;;;;;;;;;5068480;28;22281;-65
2022/01/27 04:30:42;;;;;;;32.47;16.50;;;;;;;;;;5052468;28;20088;-65
2022/01/27 04:33:09;;;;;;;29.60;17.23;;;;;;;;;;5052343;28;20050;-65
2022/01/27 04:35:41;;;;;;;29.83;15.55;;;;;;;;;;5059493;28;20060;-65
2022/01/27 04:40:56;;;;;;;29.58;15.93;;;;;;;;;;5053464;28;20096;-65
2022/01/27 04:43:33;;;;;;;32.03;16.52;;;;;;;;;;5071617;28;20111;-65
2022/01/27 04:46:22;;;;;;;34.92;15.27;;;;;;;;;;5045044;28;20559;-65
2022/01/27 04:48:53;;;;;;;33.55;17.27;;;;;;;;;;5058803;28;20057;-65
2022/01/27 04:51:22;;;;;;;31.00;16.73;;;;;;;;;;5054219;28;20136;-66
2022/01/27 04:53:55;;;;;;;30.42;15.88;;;;;;;;;;5064851;28;20090;-65
2022/01/27 04:56:23;;;;;;;29.38;16.85;;;;;;;;;;5062564;28;20493;-65
2022/01/27 04:58:55;;;;;;;35.08;15.80;;;;;;;;;;5063566;28;20054;-65
2022/01/27 05:01:28;;;;;;;31.00;14.77;;;;;;;;;;5059572;28;20053;-65
2022/01/27 05:04:01;;;;;;;32.97;16.83;;;;;;;;;;5054722;28;20054;-65
2022/01/27 05:06:29;;;;;;;28.70;14.55;;;;;;;;;;5071716;28;20103;-65
2022/01/27 05:08:56;;;;;;;34.72;15.10;;;;;;;;;;5054782;28;20115;-65
2022/01/27 05:11:27;;;;;;;33.35;16.20;;;;;;;;;;5054981;28;20061;-65
2022/01/27 05:14:39;;;;;;;31.17;15.48;;;;;;;;;;5064230;28;20085;-66
2022/01/27 05:16:40;;;;;;;36.55;15.13;;;;;;;;;;5055779;28;20225;-64
2022/01/27 05:19:07;;;;;;;33.90;16.92;;;;;;;;;;5060390;28;20600;-64
2022/01/27 05:21:33;;;;;;;38.13;15.73;;;;;;;;;;5063773;28;20519;-64
2022/01/27 05:24:00;;;;;;;29.80;14.65;;;;;;;;;;5057111;28;20580;-64
2022/01/27 05:26:27;;;;;;;35.75;15.02;;;;;;;;;;5072973;28;20076;-66
2022/01/27 05:28:53;;;;;;;26.65;14.70;;;;;;;;;;5055027;28;20050;-65
2022/01/27 05:31:19;;;;;;;35.00;15.25;;;;;;;;;;5054591;28;20070;-65
2022/01/27 05:33:46;;;;;;;36.03;14.15;;;;;;;;;;5071243;28;20053;-65
2022/01/27 05:36:13;;;;;;;30.70;13.98;;;;;;;;;;5073544;28;20646;-65
2022/01/27 05:38:39;;;;;;;21.98;11.95;;;;;;;;;;5072478;28;20053;-66
2022/01/27 05:41:06;;;;;;;35.53;13.75;;;;;;;;;;5057864;28;20057;-65
2022/01/27 05:43:33;;;;;;;27.80;13.80;;;;;;;;;;5055017;28;20053;-65
2022/01/27 05:46:00;;;;;;;32.60;14.32;;;;;;;;;;5055550;28;20089;-65
2022/01/27 05:48:27;;;;;;;29.27;13.38;;;;;;;;;;5069889;28;20136;-64
2022/01/27 05:50:53;;;;;;;44.67;14.98;;;;;;;;;;5069919;28;20056;-64
2022/01/27 05:53:19;;;;;;;30.95;14.43;;;;;;;;;;5054762;28;20219;-65
2022/01/27 05:55:46;;;;;;;34.55;13.88;;;;;;;;;;5068888;28;20084;-65
2022/01/27 05:58:12;;;;;;;34.22;14.93;;;;;;;;;;5050745;28;20057;-65
2022/01/27 06:00:38;;;;;;;31.73;12.77;;;;;;;;;;5052002;28;20045;-64
2022/01/27 06:03:05;;;;;;;22.75;11.95;;;;;;;;;;5052436;28;20061;-64
2022/01/27 06:05:31;;;;;;;33.65;13.55;;;;;;;;;;5052632;28;20111;-64
2022/01/27 06:07:57;;;;;;;29.80;13.77;;;;;;;;;;5043109;28;20062;-65
2022/01/27 06:10:24;;;;;;;24.52;13.30;;;;;;;;;;5049902;28;20531;-65
2022/01/27 06:12:56;;;;;;;29.63;12.63;;;;;;;;;;5051829;28;20046;-65
2022/01/27 06:15:23;;;;;;;33.42;12.15;;;;;;;;;;5053816;28;20091;-66
2022/01/27 06:17:50;;;;;;;26.85;12.80;;;;;;;;;;5054058;28;20057;-64
2022/01/27 06:20:17;;;;;;;22.13;11.45;;;;;;;;;;5053123;28;20052;-64
2022/01/27 06:22:44;;;;;;;27.63;11.93;;;;;;;;;;5053397;28;20060;-65
2022/01/27 06:25:11;;;;;;;25.23;11.88;;;;;;;;;;5054084;28;20095;-64
2022/01/27 06:27:37;;;;;;;31.83;13.57;;;;;;;;;;5053520;28;20068;-64
2022/01/27 06:30:05;;;;;;;37.38;13.55;;;;;;;;;;5053381;28;20585;-64
2022/01/27 06:32:32;;;;;;;29.08;11.57;;;;;;;;;;5053631;28;20053;-64
2022/01/27 06:34:59;;;;;;;21.67;11.15;;;;;;;;;;5051867;28;20057;-65
2022/01/27 06:37:25;;;;;;;21.48;10.60;;;;;;;;;;5055965;28;20057;-65
2022/01/27 06:39:52;;;;;;;24.88;10.80;;;;;;;;;;5056752;28;20049;-65
2022/01/27 06:42:19;;;;;;;25.83;11.57;;;;;;;;;;5060917;28;20661;-65
2022/01/27 06:44:47;;;;;;;35.67;11.80;;;;;;;;;;5058183;28;20063;-64
2022/01/27 06:47:13;;;;;;;32.00;12.90;;;;;;;;;;5057024;28;20081;-64
2022/01/27 06:49:39;;;;;;;32.55;13.82;;;;;;;;;;5068429;28;20085;-63
2022/01/27 06:52:06;;;;;;;31.77;13.88;;;;;;;;;;5058965;28;20046;-64
2022/01/27 06:54:33;;;;;;;33.72;13.88;;;;;;;;;;5053024;28;20053;-64
2022/01/27 06:57:00;;;;;;;32.75;13.27;;;;;;;;;;5053184;28;20061;-64
2022/01/27 06:59:26;;;;;;;31.92;12.57;;;;;;;;;;5053193;28;20049;-65
2022/01/27 07:01:53;;;;;;;38.50;14.52;;;;;;;;;;5053782;28;20425;-65
2022/01/27 07:04:19;;;;;;;35.58;12.73;;;;;;;;;;5056004;28;20628;-65
2022/01/27 07:06:48;;;;;;;38.08;14.95;;;;;;;;;;5053364;28;20045;-65
2022/01/27 07:09:14;;;;;;;33.33;13.05;;;;;;;;;;5054777;28;20058;-66
2022/01/27 07:11:40;;;;;;;37.20;13.52;;;;;;;;;;5052921;28;20058;-66
2022/01/27 07:14:07;;;;;;;38.53;15.00;;;;;;;;;;5052849;28;20057;-65
2022/01/27 07:16:34;;;;;;;30.17;13.38;;;;;;;;;;5052100;28;20578;-66
2022/01/27 07:19:00;;;;;;;35.35;14.43;;;;;;;;;;5053114;28;20495;-68
2022/01/27 07:21:27;;;;;;;41.22;14.40;;;;;;;;;;5053332;28;20053;-68
2022/01/27 07:23:53;;;;;;;37.88;14.63;;;;;;;;;;5052295;28;20077;-66
2022/01/27 07:26:25;;;;;;;32.53;13.55;;;;;;;;;;5056530;28;20049;-67
2022/01/27 07:28:54;;;;;;;34.53;14.45;;;;;;;;;;5053108;28;20137;-67
2022/01/27 07:31:21;;;;;;;38.03;15.30;;;;;;;;;;5060895;28;20053;-68
2022/01/27 07:33:48;;;;;;;34.67;12.95;;;;;;;;;;5053659;28;20131;-67
2022/01/27 07:36:15;;;;;;;43.72;15.68;;;;;;;;;;5071480;28;20063;-67
2022/01/27 07:38:42;;;;;;;32.35;14.18;;;;;;;;;;5054240;28;20496;-66
2022/01/27 07:41:09;;;;;;;38.05;15.13;;;;;;;;;;5050631;28;20088;-66
2022/01/27 07:43:35;;;;;;;38.13;16.15;;;;;;;;;;5052325;28;20054;-66
2022/01/27 07:46:03;;;;;;;37.60;15.98;;;;;;;;;;5066192;28;20060;-68
2022/01/27 07:48:30;;;;;;;45.70;15.73;;;;;;;;;;5050971;28;20053;-67
2022/01/27 07:50:56;;;;;;;31.52;14.45;;;;;;;;;;5052292;28;20144;-67
2022/01/27 07:53:22;;;;;;;34.35;14.50;;;;;;;;;;5052999;28;20056;-67
2022/01/27 07:55:49;;;;;;;30.60;15.90;;;;;;;;;;5051466;28;20060;-69
2022/01/27 07:58:15;;;;;;;30.75;14.38;;;;;;;;;;5047405;28;20065;-68
2022/01/27 08:00:41;;;;;;;33.03;14.85;;;;;;;;;;5052298;28;20062;-67
2022/01/27 08:03:08;;;;;;;34.55;15.30;;;;;;;;;;5052751;28;20061;-68
2022/01/27 08:05:34;;;;;;;27.33;15.10;;;;;;;;;;5053447;28;20054;-68
2022/01/27 08:08:01;;;;;;;29.83;14.77;;;;;;;;;;5057213;28;20060;-69
2022/01/27 08:10:27;;;;;;;34.20;16.55;;;;;;;;;;5071834;28;20407;-68
2022/01/27 08:12:53;;;;;;;28.45;14.70;;;;;;;;;;5072649;28;20138;-67
2022/01/27 08:15:22;;;;;;;43.35;16.45;;;;;;;;;;5071740;28;20057;-67
2022/01/27 08:17:48;;;;;;;34.17;15.30;;;;;;;;;;5070865;28;20057;-67
2022/01/27 08:20:15;;;;;;;35.35;15.23;;;;;;;;;;5072709;28;20059;-66
2022/01/27 08:22:46;;;;;;;26.85;14.88;;;;;;;;;;5055341;28;20057;-67
2022/01/27 08:25:13;;;;;;;35.80;15.82;;;;;;;;;;5055758;28;20057;-66
2022/01/27 08:27:47;;;;;;;29.67;14.35;;;;;;;;;;5069190;28;20049;-66
2022/01/27 08:30:16;;;;;;;36.72;15.77;;;;;;;;;;5058988;28;20111;-66
2022/01/27 08:32:57;;;;;;;31.25;14.85;;;;;;;;;;5055718;28;20503;-67
2022/01/27 08:35:24;;;;;;;29.42;14.25;;;;;;;;;;5056753;28;20089;-67
2022/01/27 08:37:51;;;;;;;37.42;14.60;;;;;;;;;;5055356;28;20060;-67
2022/01/27 08:40:19;;;;;;;29.50;14.52;;;;;;;;;;5061163;28;20104;-69
2022/01/27 08:43:04;;;;;;;34.67;14.38;;;;;;;;;;5064428;28;20057;-70
2022/01/27 08:45:30;;;;;;;31.75;14.75;;;;;;;;;;5062931;28;20144;-71
2022/01/27 08:47:58;;;;;;;25.42;12.73;;;;;;;;;;5069038;28;20135;-68
2022/01/27 08:50:25;;;;;;;27.48;12.52;;;;;;;;;;5073776;28;20060;-68
2022/01/27 08:52:51;;;;;;;26.67;13.25;;;;;;;;;;5075632;28;20051;-69
2022/01/27 08:55:20;;;;;;;33.28;13.40;;;;;;;;;;5066614;28;20053;-69
2022/01/27 08:57:46;;;;;;;24.85;13.15;;;;;;;;;;5048171;28;20061;-69
2022/01/27 09:00:13;;;;;;;28.58;13.63;;;;;;;;;;5071615;28;20408;-69
2022/01/27 09:02:40;;;;;;;29.92;13.35;;;;;;;;;;5073566;28;20111;-69
2022/01/27 09:05:06;;;;;;;25.02;11.93;;;;;;;;;;5072068;28;20145;-68
2022/01/27 09:07:34;;;;;;;26.70;13.05;;;;;;;;;;5055184;28;20501;-66
2022/01/27 09:10:00;;;;;;;23.23;11.23;;;;;;;;;;5059168;28;20500;-69
2022/01/27 09:12:26;;;;;;;22.52;12.10;;;;;;;;;;5073148;28;20073;-69
2022/01/27 09:14:53;;;;;;;29.75;12.05;;;;;;;;;;5054745;28;20591;-67
2022/01/27 09:17:24;;;;;;;19.88;10.27;;;;;;;;;;5055267;28;20084;-66
2022/01/27 09:19:51;;;;;;;20.80;10.20;;;;;;;;;;5054527;28;20052;-67
2022/01/27 09:22:19;;;;;;;24.77;11.85;;;;;;;;;;5056485;28;20053;-68
2022/01/27 09:24:59;;;;;;;20.92;10.50;;;;;;;;;;5055830;28;20103;-67
2022/01/27 09:27:26;;;;;;;26.10;11.30;;;;;;;;;;5054616;28;20053;-67
2022/01/27 09:29:56;;;;;;;21.27;11.30;;;;;;;;;;5053634;28;20062;-68
2022/01/27 09:32:25;;;;;;;29.40;11.05;;;;;;;;;;5066948;28;20057;-68
2022/01/27 09:35:12;;;;;;;21.85;10.73;;;;;;;;;;5074942;28;20137;-67
2022/01/27 09:37:40;;;;;;;22.38;10.15;;;;;;;;;;5074745;28;20080;-68
2022/01/27 09:40:07;;;;;;;33.22;12.43;;;;;;;;;;5055514;28;20096;-69
2022/01/27 09:42:37;;;;;;;27.60;10.40;;;;;;;;;;5066327;28;20053;-68
2022/01/27 09:45:05;;;;;;;27.08;11.35;;;;;;;;;;5054195;28;20144;-70
2022/01/27 09:47:34;;;;;;;24.45;10.88;;;;;;;;;;5054417;28;20092;-68
2022/01/27 09:50:10;;;;;;;27.13;10.57;;;;;;;;;;5067360;28;20048;-71
2022/01/27 09:52:37;;;;;;;29.60;10.95;;;;;;;;;;5049325;28;20046;-69
2022/01/27 09:55:03;;;;;;;21.80;10.32;;;;;;;;;;5054334;28;20057;-69
2022/01/27 09:57:30;;;;;;;19.52;10.65;;;;;;;;;;5068633;28;20057;-69
2022/01/27 09:59:56;;;;;;;20.27;10.25;;;;;;;;;;5059963;28;20049;-69
2022/01/27 10:02:22;;;;;;;22.10;9.57;;;;;;;;;;5054093;28;20057;-67
2022/01/27 10:04:53;;;;;;;23.08;9.75;;;;;;;;;;5054127;28;20061;-66
2022/01/27 10:07:22;;;;;;;27.00;10.05;;;;;;;;;;5054141;28;20127;-67
2022/01/27 10:10:16;;;;;;;21.85;8.93;;;;;;;;;;5068056;28;20049;-66
2022/01/27 10:12:51;;;;;;;22.83;9.82;;;;;;;;;;5069335;28;20057;-68
2022/01/27 10:15:19;;;;;;;29.02;10.52;;;;;;;;;;5070618;28;20053;-70
2022/01/27 10:18:04;;;;;;;25.83;9.90;;;;;;;;;;5068186;28;20466;-68
2022/01/27 10:20:30;;;;;;;31.02;10.30;;;;;;;;;;5046883;28;20060;-70
2022/01/27 10:23:09;;;;;;;22.80;10.20;;;;;;;;;;5053903;28;20049;-68
2022/01/27 10:25:45;;;;;;;22.05;9.38;;;;;;;;;;5057660;28;20057;-67
2022/01/27 10:28:29;;;;;;;26.77;9.98;;;;;;;;;;5053701;28;20630;-68
2022/01/27 10:30:59;;;;;;;20.65;9.55;;;;;;;;;;5064898;28;20065;-70
2022/01/27 10:33:26;;;;;;;26.40;9.27;;;;;;;;;;5073897;28;20087;-68
2022/01/27 10:35:54;;;;;;;29.00;10.80;;;;;;;;;;5073320;28;20152;-68
2022/01/27 10:38:20;;;;;;;21.73;9.55;;;;;;;;;;5073337;28;20049;-68
2022/01/27 10:40:49;;;;;;;25.83;10.20;;;;;;;;;;5072742;28;20476;-71
2022/01/27 10:43:17;;;;;;;27.13;11.02;;;;;;;;;;5053650;28;20203;-69
2022/01/27 10:46:20;;;;;;;31.17;10.18;;;;;;;;;;5052608;28;20064;-70
2022/01/27 10:48:53;;;;;;;24.38;10.40;;;;;;;;;;5053786;28;20056;-69
2022/01/27 10:51:25;;;;;;;26.52;9.73;;;;;;;;;;5058917;28;20058;-68
2022/01/27 10:53:58;;;;;;;25.63;10.05;;;;;;;;;;5052969;28;20501;-68
2022/01/27 10:56:26;;;;;;;23.83;9.50;;;;;;;;;;5053096;28;20057;-68
2022/01/27 10:58:53;;;;;;;24.90;8.95;;;;;;;;;;5054391;28;20401;-68
2022/01/27 11:01:27;;;;;;;25.73;8.32;;;;;;;;;;5052721;28;20053;-66
2022/01/27 11:03:55;;;;;;;25.13;8.57;;;;;;;;;;5053398;28;20057;-67
2022/01/27 11:06:26;;;;;;;22.05;8.00;;;;;;;;;;5057020;28;20103;-68
2022/01/27 11:08:54;;;;;;;20.27;8.40;;;;;;;;;;5041327;28;20077;-69
2022/01/27 11:11:21;;;;;;;23.40;8.20;;;;;;;;;;5068810;28;20049;-69
2022/01/27 11:13:48;;;;;;;22.67;8.25;;;;;;;;;;5070326;28;20096;-70
2022/01/27 11:16:18;;;;;;;21.08;7.55;;;;;;;;;;5053243;28;20089;-70
2022/01/27 11:18:46;;;;;;;25.10;8.27;;;;;;;;;;5053109;28;20084;-70
2022/01/27 11:21:28;;;;;;;22.92;8.63;;;;;;;;;;5053248;28;20053;-69
2022/01/27 11:24:04;;;;;;;22.75;9.07;;;;;;;;;;5053167;28;20570;-69
2022/01/27 11:26:33;;;;;;;24.13;8.23;;;;;;;;;;5052842;28;20045;-70
2022/01/27 11:29:01;;;;;;;26.73;8.70;;;;;;;;;;5053012;28;20080;-70
2022/01/27 11:31:27;;;;;;;18.40;6.85;;;;;;;;;;5052900;28;20059;-71
2022/01/27 11:34:04;;;;;;;19.42;8.18;;;;;;;;;;5050871;28;20058;-70
2022/01/27 11:36:31;;;;;;;21.85;7.10;;;;;;;;;;5050085;28;20485;-69
2022/01/27 11:38:58;;;;;;;20.33;6.70;;;;;;;;;;5047163;28;20561;-68
2022/01/27 11:41:34;;;;;;;16.45;7.45;;;;;;;;;;5052447;28;20081;-68
2022/01/27 11:44:37;;;;;;;22.95;7.03;;;;;;;;;;5043090;28;20057;-69
2022/01/27 11:47:13;;;;;;;21.88;7.20;;;;;;;;;;5030513;28;20052;-68
2022/01/27 11:50:18;;;;;;;22.95;7.05;;;;;;;;;;5052325;28;20056;-68
2022/01/27 11:52:51;;;;;;;17.13;6.40;;;;;;;;;;5060407;28;20061;-69
2022/01/27 11:55:24;;;;;;;18.15;6.95;;;;;;;;;;5055021;28;20053;-69
2022/01/27 11:57:51;;;;;;;29.27;8.95;;;;;;;;;;5069032;28;20092;-70
2022/01/27 12:00:22;;;;;;;15.05;6.47;;;;;;;;;;5065455;28;20092;-68
2022/01/27 12:03:01;;;;;;;25.80;6.40;;;;;;;;;;5053335;28;20049;-69
2022/01/27 12:05:35;;;;;;;23.55;7.18;;;;;;;;;;5056231;28;20105;-67
2022/01/27 12:08:13;;;;;;;21.00;6.63;;;;;;;;;;5057731;28;20049;-69
2022/01/27 12:10:47;;;;;;;28.40;7.05;;;;;;;;;;5054607;28;20820;-68
2022/01/27 12:13:46;;;;;;;21.65;7.63;;;;;;;;;;5067088;28;20049;-68
2022/01/27 12:16:37;;;;;;;20.40;6.75;;;;;;;;;;5059009;28;20149;-67
2022/01/27 12:19:08;;;;;;;22.40;7.38;;;;;;;;;;5061362;28;20041;-70
2022/01/27 12:21:46;;;;;;;19.73;5.75;;;;;;;;;;5066511;28;20111;-69
2022/01/27 12:24:21;;;;;;;15.90;5.97;;;;;;;;;;5075895;28;20085;-69
2022/01/27 12:26:48;;;;;;;;;;;;;;;;;;5074691;28;20132;-70
2022/01/27 12:29:14;;;;;;;;;;;;;;;;;;5058358;28;45535;-69
2022/01/27 12:31:42;;;;;;;15.68;5.68;;;;;;;;;;5054947;28;45792;-70
2022/01/27 12:34:11;;;;;;;17.98;6.28;;;;;;;;;;5055921;28;20140;-67
2022/01/27 12:36:38;;;;;;;19.15;6.40;;;;;;;;;;5055385;28;20140;-67
2022/01/27 12:39:05;;;;;;;14.27;5.32;;;;;;;;;;5055738;28;20058;-70
2022/01/27 12:41:36;;;;;;;14.13;5.47;;;;;;;;;;5064314;28;20092;-68
2022/01/27 12:44:08;;;;;;;17.67;5.75;;;;;;;;;;5055254;28;20153;-70
2022/01/27 12:46:34;;;;;;;17.23;6.03;;;;;;;;;;5055318;28;20059;-70
2022/01/27 12:49:02;;;;;;;17.25;5.72;;;;;;;;;;5055354;28;20497;-69
2022/01/27 12:51:55;;;;;;;14.57;6.05;;;;;;;;;;5054869;28;20060;-69
2022/01/27 12:54:25;;;;;;;16.33;6.13;;;;;;;;;;5075618;28;20079;-68
2022/01/27 12:56:51;;;;;;;17.80;5.10;;;;;;;;;;5065647;28;20080;-68
2022/01/27 12:59:17;;;;;;;14.55;5.57;;;;;;;;;;5053771;28;20132;-68
2022/01/27 13:01:43;;;;;;;19.33;4.82;;;;;;;;;;5053723;28;20057;-67
2022/01/27 13:04:10;;;;;;;20.95;5.38;;;;;;;;;;5054906;28;20081;-68
2022/01/27 13:06:36;;;;;;;15.63;5.07;;;;;;;;;;5055849;28;20046;-68
2022/01/27 13:09:09;;;;;;;12.15;4.32;;;;;;;;;;5065513;28;20053;-68
2022/01/27 13:11:38;;;;;;;20.23;6.28;;;;;;;;;;5063490;28;20081;-69
2022/01/27 13:14:06;;;;;;;15.93;5.03;;;;;;;;;;5056129;28;20053;-69
2022/01/27 13:16:39;;;;;;;12.73;4.25;;;;;;;;;;5053569;28;20053;-66
2022/01/27 13:19:16;;;;;;;15.50;5.22;;;;;;;;;;5055545;28;20054;-69
2022/01/27 13:21:44;;;;;;;10.70;4.07;;;;;;;;;;5058377;28;20050;-70
2022/01/27 13:24:26;;;;;;;7.18;3.67;;;;;;;;;;5054231;28;20487;-67
2022/01/27 13:27:09;;;;;;;8.25;3.63;;;;;;;;;;5072900;28;20052;-68
2022/01/27 13:29:40;;;;;;;15.80;4.05;;;;;;;;;;5060830;28;20539;-68
2022/01/27 13:32:07;;;;;;;13.93;4.03;;;;;;;;;;5052509;28;20572;-67
2022/01/27 13:34:34;;;;;;;14.23;4.53;;;;;;;;;;5056012;28;20580;-68
2022/01/27 13:37:01;;;;;;;11.82;3.70;;;;;;;;;;5054295;28;20060;-69
2022/01/27 13:41:16;;;;;;;16.88;4.13;;;;;;;;;;5054542;28;20560;-68
2022/01/27 13:42:23;;;;;;;12.52;3.88;;;;;;;;;;5054579;28;20060;-69
2022/01/27 13:44:57;;;;;;;8.05;3.33;;;;;;;;;;5054589;28;20859;-68
2022/01/27 13:47:28;;;;;;;16.35;3.70;;;;;;;;;;5054923;28;20077;-68
2022/01/27 13:50:05;;;;;;;12.98;3.15;;;;;;;;;;5054495;28;20140;-68
2022/01/27 13:52:51;;;;;;;15.13;3.75;;;;;;;;;;5054458;28;20064;-69
2022/01/27 13:55:19;;;;;;;11.40;3.75;;;;;;;;;;5054469;28;20053;-68
2022/01/27 13:57:52;;;;;;;14.52;3.80;;;;;;;;;;5055759;28;20069;-68
2022/01/27 14:00:22;;;;;;;10.52;2.92;;;;;;;;;;5042851;28;20531;-68
2022/01/27 14:02:52;;;;;;;10.63;3.40;;;;;;;;;;5053835;28;20057;-69
2022/01/27 14:05:20;;;;;;;10.85;2.50;;;;;;;;;;5054464;28;20489;-67
2022/01/27 14:07:57;;;;;;;17.65;4.05;;;;;;;;;;5054465;28;20509;-67
2022/01/27 14:10:31;;;;;;;11.80;3.20;;;;;;;;;;5052516;28;20135;-71
2022/01/27 14:13:04;;;;;;;8.25;3.00;;;;;;;;;;5052680;28;20143;-67
2022/01/27 14:15:43;;;;;;;11.80;2.90;;;;;;;;;;5052926;28;20115;-68
2022/01/27 14:18:10;;;;;;;13.05;3.35;;;;;;;;;;5054999;28;20057;-69
2022/01/27 14:20:57;;;;;;;16.73;3.20;;;;;;;;;;5053949;28;20485;-68
2022/01/27 14:23:46;;;;;;;12.80;5.07;;;;;;;;;;5053297;28;20144;-68
2022/01/27 14:26:26;;;;;;;10.60;2.70;;;;;;;;;;5039420;28;20057;-68
2022/01/27 14:28:56;;;;;;;11.75;2.72;;;;;;;;;;5054291;28;20061;-70
2022/01/27 14:31:22;;;;;;;12.32;3.35;;;;;;;;;;5053307;28;20057;-66
2022/01/27 14:33:49;;;;;;;13.82;3.63;;;;;;;;;;5053394;28;20107;-66
2022/01/27 14:36:16;;;;;;;10.15;1.95;;;;;;;;;;5053737;28;20459;-67
2022/01/27 14:38:42;;;;;;;9.30;2.95;;;;;;;;;;5053378;28;20053;-68
2022/01/27 14:41:09;;;;;;;14.43;2.78;;;;;;;;;;5053407;28;20144;-68
2022/01/27 14:43:38;;;;;;;7.47;2.20;;;;;;;;;;5050073;28;20053;-68
2022/01/27 14:46:06;;;;;;;10.27;2.17;;;;;;;;;;5050570;28;20061;-68
2022/01/27 14:48:37;;;;;;;12.45;2.30;;;;;;;;;;5053427;28;20059;-67
2022/01/27 14:51:08;;;;;;;7.95;2.47;;;;;;;;;;5052216;28;20084;-66
2022/01/27 14:53:35;;;;;;;19.58;3.50;;;;;;;;;;5052316;28;20554;-68
2022/01/27 14:56:05;;;;;;;11.30;3.53;;;;;;;;;;5052748;28;20509;-68
2022/01/27 14:58:33;;;;;;;8.23;2.40;;;;;;;;;;5052829;28;20080;-67
2022/01/27 15:00:59;;;;;;;16.45;3.13;;;;;;;;;;5056106;28;20120;-70
2022/01/27 15:03:26;;;;;;;11.50;2.50;;;;;;;;;;5052149;28;20531;-70
2022/01/27 15:05:52;;;;;;;9.77;2.80;;;;;;;;;;5052370;28;20053;-68
2022/01/27 15:08:18;;;;;;;9.27;2.38;;;;;;;;;;5053204;28;20141;-66
2022/01/27 15:10:46;;;;;;;14.82;2.85;;;;;;;;;;5047285;28;20053;-68
2022/01/27 15:13:13;;;;;;;12.50;2.60;;;;;;;;;;5051780;28;20061;-68